Arthur, West Virginia
Current Conditions -  °F | °C
As of 6:55 PM on Friday 19 Dec 2014 (Local Time) from KW99 Reporting Station
Overcast Overcast  
Wind Chill: -3°   Ceiling: 2800
Heat Index:   Visibility: 10mi
Dew Point: -5°   Wind: 6mph
Humidity: 67%   Direction: 280°W
Pressure: 30.25"   Gusts: NA
Location:  38.9337°N, 79.1435°W
Report Text: KW99 192355Z AUTO 28005KT 10SM OVC028 00/M05 A3025 RMK AO2 T00011054 10028 20000
Loading
Personal Weather Stations






























Interactive Weather Map New forecast layout! Learn more

10-Day Weather Forecast

Advertisements
Track Severe Weather on mobile